Tiempo atmosférico en la estación meteorológica de Ainsa, Huesca (610 m.)



Fecha
DESCASC
Temp. máxima en grados centígrados (hora)
DESCASC
Temp. mínima en grados centígrados (hora)
DESCASC
Temp. media en grados centígrados
DESCASC
Racha de viento máxima en m/sg (hora)
DESCASC
Velocidad máxima media en intervalos de 10 minutos(hora)
DESCASC
Precipitaciones diarias en mm
DESCASC
Precipitaciones de 00:00 a 06:00 en mm
DESCASC
Precipitaciones de 06:00 a 12:00 en mm
DESCASC
Precipitaciones de 12:00 a 18:00 en mm
DESCASC
Precipitaciones de 18:00 a 24:00 en mm
DESCASC
19-04-2018 22.6 (13:40) 11 (07:40) 16.8 6.94 (14:40) 5.56 (14:50) 0 0 0 0 0
18-04-2018 23.9 (14:30) 8.9 (07:10) 16.4 8.61 (15:50) 6.11 (15:50) 0 0 0 0 0
17-04-2018 21.6 (15:50) 5 (06:40) 13.3 8.61 (17:50) 7.22 (17:40) 0 0 0 0 0
16-04-2018 13.4 (20:10) 8.4 (23:59) 10.9 5.83 (05:30) 3.89 (17:00) 27.2 0 26.8 0.4 0
15-04-2018 20.2 (15:00) 4.5 (00:00) 12.4 7.78 (19:30) 5.28 (18:10) 0 0 0 0 0
14-04-2018 16.8 (16:00) 5.4 (00:00) 11.1 7.78 (17:00) 6.11 (16:50) 0.4 0.4 0 0 0
13-04-2018 9.4 (19:30) 6.2 (00:00) 7.8 5.83 (00:20) 4.17 (00:50) 17 0 6.2 10.8 0
12-04-2018 14.9 (14:50) 0.1 (00:00) 7.5 9.44 (15:40) 6.39 (15:40) 0.2 0 0.2 0 0
11-04-2018 6.8 (18:00) 3.3 (00:00) 5.1 7.22 (07:20) 5.28 (07:20) 31 11 13.2 6.2 0.6
10-04-2018 6.1 (16:00) 3.3 (00:00) 4.7 7.22 (23:59) 5.56 (23:50) 21.2 2.8 1.4 5.4 11.6
09-04-2018 13.3 (13:00) 3 (00:00) 8.2 15.83 (17:10) 10.28 (17:00) 9 0 0 5.4 3.6
08-04-2018 10.5 (00:00) 5.9 (00:00) 8.2 5.83 (12:00) 4.17 (12:00) 25.8 13 12.6 0.2 0
07-04-2018 13.2 (12:20) 9.1 (00:00) 11.2 5.56 (17:50) 4.17 (15:00) 8 1.2 0.2 0.4 6.2
06-04-2018 20.5 (14:20) 4.3 (00:00) 12.4 8.89 (17:40) 6.11 (17:40) 0.6 0 0 0 0.6
05-04-2018 19.1 (17:30) 2.6 (00:00) 10.9 7.22 (19:20) 6.11 (19:20) 0.2 0.2 0 0 0
04-04-2018 15.1 (13:30) 7.1 (00:00) 11.1 14.44 (03:00) 7.78 (02:50) 4.4 0.4 0 0 4
03-04-2018 17.1 (16:20) 5 (00:00) 11.1 6.39 (18:50) 4.17 (19:00) 1.6 0 1.6 0 0
02-04-2018 17.3 (15:40) 4.5 (00:00) 10.9 6.67 (15:10) 4.17 (15:40) 0 0 0 0 0
01-04-2018 16.2 (16:10) -1.8 (-00:0) 7.2 7.5 (17:50) 6.11 (17:40) 0 0 0 0 0
31-03-2018 11.4 (15:40) 2.5 (00:00) 6.9 16.11 (16:20) 11.67 (17:10) 1 0.6 0.4 0 0
30-03-2018 14.2 (17:20) 4 (00:00) 9.1 9.72 (15:20) 5.28 (16:20) 1.6 1.4 0.2 0 0
29-03-2018 15.9 (18:20) 5.1 (00:00) 10.5 9.72 (17:00) 6.94 (14:50) 0.2 0 0 0 0.2
28-03-2018 21.3 (14:20) 4.1 (00:00) 12.7 13.33 (17:50) 9.17 (17:40) 0 0 0 0 0
27-03-2018 21.6 (16:00) 0.7 (00:00) 11.2 14.17 (18:00) 10.28 (18:10) 0 0 0 0 0
26-03-2018 15.5 (15:40) -0.2 (00:00) 7.6 13.89 (16:10) 8.06 (16:10) 0 0 0 0 0
25-03-2018 13.2 (14:10) 1.1 (00:00) 7.1 7.78 (13:30) 5.56 (15:30) 3.6 0 0 3.6 0
24-03-2018 11.3 (16:20) 3.5 (00:00) 7.4 10.28 (09:20) 8.33 (08:30) 13 9.8 3.2 0 0
23-03-2018 -- (--) -- (--) -- -- (--) -- (--) 0 0 0 0 0

Gráficas

Temp. máximas Temp. mínimas Temp. medias Precipitaciones Rachas de viento máximas Velocidades máximas media en intervalos de 10 minutos

Datos horarios

Fecha y hora oficial Temperatura (ºC) Velocidad del viento (km/h) Dirección del viento Racha (km/h) Dirección de racha Precipitación (mm) Presión (hPa) Tendencia (hPa) Humedad (%)
2018-04-21 23:00:00 14.3 4 Sudoeste 12 Noroeste 0 -- -- 67
2018-04-21 22:00:00 15.5 8 Noroeste 12 Noroeste 0 -- -- 62
2018-04-21 21:00:00 17.9 5 Este 13 Sudeste 0 -- -- 55
2018-04-21 20:00:00 19.7 8 Sudeste 14 Sur 0 -- -- 47
2018-04-21 19:00:00 21 7 Sudeste 16 Sudoeste 0 -- -- 39
2018-04-21 18:00:00 21.7 11 Sudeste 20 Sudeste 0 -- -- 40
2018-04-21 17:00:00 22.5 14 Sudeste 27 Sudeste 0 -- -- 41
2018-04-21 16:00:00 22.7 19 Sudeste 32 Sudeste 0 -- -- 43
2018-04-21 15:00:00 23 20 Sudeste 27 Sudeste 0 -- -- 43
2018-04-21 14:00:00 22.8 14 Sudeste 23 Sudeste 0 -- -- 42
2018-04-21 13:00:00 22.2 13 Sudeste 17 Sudeste 0 -- -- 48
2018-04-21 12:00:00 19.4 3 Oeste 12 Este 0 -- -- 57
2018-04-21 11:00:00 16.8 0 Calma 10 Este 0 -- -- 65
2018-04-21 10:00:00 13.3 5 Sudeste 10 Este 0 -- -- 77
2018-04-21 09:00:00 10.4 2 Norte 8 Noroeste 0 -- -- 86
2018-04-21 08:00:00 8 6 Noroeste 11 Norte 0 -- -- 93
2018-04-21 07:00:00 8.4 7 Noroeste 12 Norte 0 -- -- 93
2018-04-21 06:00:00 9.2 5 Noroeste 15 Norte 0 -- -- 89
2018-04-21 05:00:00 9.3 9 Norte 15 Noroeste 0 -- -- 90
2018-04-21 04:00:00 9.8 10 Norte 14 Norte 0 -- -- 89
2018-04-21 03:00:00 10.4 5 Noroeste 13 Noroeste 0 -- -- 86
2018-04-21 02:00:00 11 7 Noroeste 14 Norte 0 -- -- 86
2018-04-21 01:00:00 11.7 8 Noroeste 15 Norte 0 -- -- 82
2018-04-21 00:00:00 12.5 8 Norte 13 Norte 0 -- -- 81
2018-04-20 23:00:00 14.1 10 Norte 13 Norte 0 -- -- 75
2018-04-20 22:00:00 16.1 8 Norte 15 Norte 0 -- -- 67
2018-04-20 21:00:00 18.1 6 Sur 19 Sudoeste 0 -- -- 54
2018-04-20 20:00:00 19 13 Sudoeste 28 Sudoeste 0 -- -- 49
2018-04-20 19:00:00 19.6 16 Sudoeste 32 Sudoeste 0 -- -- 56
2018-04-20 18:00:00 21.3 15 Sur 33 Sur 0 -- -- 50
2018-04-20 17:00:00 21.9 17 Sur 33 Sudeste 0 -- -- 47
2018-04-20 16:00:00 22.3 17 Sur 32 Sudeste 0 -- -- 49
2018-04-20 15:00:00 22 21 Sudeste 31 Sudeste 0 -- -- 44
2018-04-20 14:00:00 22.5 16 Sudeste 23 Sudeste 0 -- -- 46
2018-04-20 13:00:00 21 8 Sudeste 15 Sudeste 0 -- -- 47
2018-04-20 12:00:00 19.6 9 Sudeste 13 Este 0 -- -- 56
2018-04-20 11:00:00 18.1 6 Sur 10 Sur 0 -- -- 61
2018-04-20 10:00:00 15.1 4 Este 8 Este 0 -- -- 74
2018-04-20 09:00:00 12.8 2 Norte 9 Norte 0 -- -- 82
2018-04-20 08:00:00 11.1 6 Norte 12 Noroeste 0 -- -- 88
2018-04-20 07:00:00 10.6 9 Noroeste 13 Norte 0 -- -- 89
2018-04-20 06:00:00 10.8 6 Noroeste 9 Norte 0 -- -- 91
2018-04-20 05:00:00 11.8 3 Norte 8 Noroeste 0 -- -- 88
2018-04-20 04:00:00 12.4 6 Noroeste 10 Noroeste 0 -- -- 88
2018-04-20 03:00:00 13.4 5 Norte 12 Noroeste 0 -- -- 82
2018-04-20 02:00:00 13.6 4 Noroeste 12 Norte 0 -- -- 84
2018-04-20 01:00:00 14.3 3 Este 9 Nordeste 0 -- -- 80
2018-04-20 00:00:00 15 4 Nordeste 10 Sudeste 0 -- -- 76
2018-04-19 23:00:00 15.9 4 Este 10 Este 0 -- -- 73
2018-04-19 22:00:00 16.8 3 Nordeste 10 Norte 0 -- -- 67
2018-04-19 21:00:00 17.7 8 Sudeste 11 Sudeste 0 -- -- 64
2018-04-19 20:00:00 19.1 7 Sur 15 Sur 0 -- -- 55
2018-04-19 19:00:00 19.6 10 Sudeste 18 Sudeste 0 -- -- 54
2018-04-19 18:00:00 20 8 Sudeste 22 Sudeste 0 -- -- 54
2018-04-19 17:00:00 20.2 16 Sudeste 22 Sudeste 0 -- -- 52
2018-04-19 16:00:00 20.5 17 Sudeste 24 Sudeste 0 -- -- 48
2018-04-19 15:00:00 21.4 17 Sudeste 25 Sudeste 0 -- -- 47
2018-04-19 14:00:00 22 13 Sudeste 22 Sudeste 0 -- -- 46
2018-04-19 13:00:00 21.7 11 Sudeste 19 Sudeste 0 -- -- 50
2018-04-19 12:00:00 20 11 Sudeste 16 Sudeste 0 -- -- 56
2018-04-19 11:00:00 18 9 Sudeste 15 Sudeste 0 -- -- 60
2018-04-19 10:00:00 14.6 12 Sudeste 15 Sudeste 0 -- -- 74
2018-04-19 09:00:00 12.6 0 Calma 7 Noroeste 0 -- -- 83
2018-04-19 08:00:00 11.1 3 Noroeste 13 Noroeste 0 -- -- 84
2018-04-19 07:00:00 11.7 2 Norte 8 Oeste 0 -- -- 82
2018-04-19 06:00:00 12.3 4 Noroeste 10 Noroeste 0 -- -- 78
2018-04-19 05:00:00 12.6 8 Noroeste 12 Oeste 0 -- -- 80
2018-04-19 04:00:00 12.9 5 Oeste 12 Oeste 0 -- -- 76
2018-04-19 03:00:00 13.1 8 Oeste 13 Oeste 0 -- -- 76
2018-04-19 02:00:00 13.8 10 Oeste 14 Oeste 0 -- -- 75
2018-04-19 01:00:00 14.6 10 Oeste 14 Oeste 0 -- -- 75
2018-04-19 00:00:00 15.6 5 Noroeste 10 Norte 0 -- -- 72
2018-04-18 23:00:00 16.3 4 Sudoeste 10 Norte 0 -- -- 65
2018-04-18 22:00:00 17.4 7 Noroeste 13 Oeste 0 -- -- 62
2018-04-18 21:00:00 19.6 3 Norte 17 Sur 0 -- -- 53
2018-04-18 20:00:00 21.3 9 Sur 18 Sur 0 -- -- 47
2018-04-18 19:00:00 21.6 15 Sudeste 21 Sudeste 0 -- -- 45
2018-04-18 18:00:00 22.5 10 Sudeste 21 Sudeste 0 -- -- 40
2018-04-18 17:00:00 22.1 12 Sudeste 24 Sudeste 0 -- -- 43
2018-04-18 16:00:00 22.7 18 Sudeste 31 Sudeste 0 -- -- 47
2018-04-18 15:00:00 23.4 13 Sudeste 18 Sudeste 0 -- -- 44
2018-04-18 14:00:00 23.2 7 Sudeste 18 Sudeste 0 -- -- 44
2018-04-18 13:00:00 22.8 12 Sudeste 18 Sudeste 0 -- -- 47
2018-04-18 12:00:00 20.8 5 Sur 10 Sudeste 0 -- -- 56
2018-04-18 11:00:00 17.5 5 Sudeste 9 Sudeste 0 -- -- 66
2018-04-18 10:00:00 14.1 5 Sudeste 10 Este 0 -- -- 79
2018-04-18 09:00:00 11 0 Calma 5 Oeste 0 -- -- 88
2018-04-18 08:00:00 8.9 4 Noroeste 10 Norte 0 -- -- 93
2018-04-18 07:00:00 9 4 Noroeste 13 Noroeste 0 -- -- 91
2018-04-18 06:00:00 9 8 Oeste 18 Norte 0 -- -- 93
2018-04-18 05:00:00 9.6 6 Noroeste 14 Noroeste 0 -- -- 91
2018-04-18 04:00:00 9.6 6 Noroeste 15 Noroeste 0 -- -- 92
2018-04-18 03:00:00 10.8 4 Noroeste 17 Noroeste 0 -- -- 89
2018-04-18 02:00:00 11.1 5 Oeste 14 Noroeste 0 -- -- 88
2018-04-18 01:00:00 11.7 8 Noroeste 12 Noroeste 0 -- -- 88
2018-04-18 00:00:00 12.6 5 Noroeste 12 Noroeste 0 -- -- 85
2018-04-17 23:00:00 13.6 9 Noroeste 15 Norte 0 -- -- 83
2018-04-17 22:00:00 15.3 12 Norte 14 Norte 0 -- -- 76
2018-04-17 21:00:00 16.9 5 Sudeste 22 Sudeste 0 -- -- 68
2018-04-17 20:00:00 18.4 19 Sudeste 26 Sudeste 0 -- -- 64
2018-04-17 19:00:00 19.4 22 Sudeste 31 Sudeste 0 -- -- 61
2018-04-17 18:00:00 20.2 23 Sudeste 31 Sudeste 0 -- -- 61
2018-04-17 17:00:00 21 21 Sudeste 26 Sudeste 0 -- -- 58
2018-04-17 16:00:00 21.5 16 Sudeste 19 Sudeste 0 -- -- 52
2018-04-17 15:00:00 21.3 12 Sudeste 16 Sudeste 0 -- -- 52
2018-04-17 14:00:00 19.7 10 Sudeste 17 Sudeste 0 -- -- 53
2018-04-17 13:00:00 17.7 12 Sudeste 17 Sudeste 0 -- -- 61
2018-04-17 12:00:00 15.5 8 Sudeste 13 Sudeste 0 -- -- 68
2018-04-17 11:00:00 13 3 Sudeste 9 Nordeste 0 -- -- 79
2018-04-17 10:00:00 9.7 2 Sudoeste 8 Nordeste 0 -- -- 93
2018-04-17 09:00:00 6.7 5 Norte 8 Norte 0 -- -- 100
2018-04-17 08:00:00 5.4 5 Noroeste 9 Noroeste 0 -- -- 100
2018-04-17 07:00:00 5 7 Noroeste 9 Norte 0 -- -- 100
2018-04-17 06:00:00 5.8 7 Noroeste 10 Norte 0 -- -- 99
2018-04-17 05:00:00 6 7 Noroeste 9 Noroeste 0 -- -- 99
2018-04-17 04:00:00 6.6 4 Norte 9 Oeste 0 -- -- 97
2018-04-17 03:00:00 6.9 6 Noroeste 12 Norte 0 -- -- 98
2018-04-17 02:00:00 7.7 6 Noroeste 14 Norte 0 -- -- 97
2018-04-17 01:00:00 8 9 Noroeste 15 Noroeste 0 -- -- 96
2018-04-17 00:00:00 8.4 7 Noroeste 10 Noroeste 0 -- -- 97
2018-04-16 23:00:00 9.2 8 Noroeste 14 Oeste 0 -- -- 96
2018-04-16 22:00:00 10.5 5 Noroeste 10 Noroeste 0 -- -- 95
2018-04-16 21:00:00 12.3 5 Sudeste 7 Sudeste 0 -- -- 89
2018-04-16 20:00:00 13.3 3 Sur 10 Sudeste 0 -- -- 84
2018-04-16 19:00:00 12.3 9 Sudeste 17 Sudeste 0 -- -- 93
2018-04-16 18:00:00 12.6 8 Sudeste 18 Oeste 0 -- -- 90
2018-04-16 17:00:00 12.7 14 Oeste 17 Oeste 0 -- -- 86
2018-04-16 16:00:00 13.1 7 Noroeste 10 Noroeste 0 -- -- 87
2018-04-16 15:00:00 12.5 7 Noroeste 10 Oeste 0 -- -- 88
2018-04-16 14:00:00 12.4 8 Oeste 10 Oeste 0 -- -- 87
2018-04-16 13:00:00 11.6 5 Oeste 13 Norte 0.4 -- -- 91
2018-04-16 12:00:00 9.7 3 Norte 18 Norte 2.6 -- -- 93
2018-04-16 11:00:00 9.2 4 Oeste 19 Norte 5.2 -- -- 99
2018-04-16 10:00:00 9.3 7 Noroeste 11 Norte 5 -- -- 98
2018-04-16 09:00:00 9.1 6 Oeste 15 Oeste 6.2 -- -- 99
2018-04-16 08:00:00 9.3 9 Sudoeste 21 Norte 3.4 -- -- 98
2018-04-16 07:00:00 9.1 6 Oeste 17 Oeste 4.4 -- -- 96
2018-04-16 06:00:00 9.5 10 Oeste 21 Noroeste 0 -- -- 89
2018-04-16 05:00:00 9.7 13 Norte 17 Norte 0 -- -- 86
2018-04-16 04:00:00 10.4 3 Noroeste 13 Noroeste 0 -- -- 79
2018-04-16 03:00:00 10.4 3 Norte 12 Noroeste 0 -- -- 78
2018-04-16 02:00:00 10.6 9 Norte 16 Noroeste 0 -- -- 76
2018-04-16 01:00:00 10.3 9 Norte 17 Norte 0 -- -- 79
2018-04-16 00:00:00 11.4 7 Norte 12 Noroeste 0 -- -- 75
2018-04-15 23:00:00 12.8 9 Noroeste 16 Norte 0 -- -- 68
2018-04-15 22:00:00 15.6 5 Sudoeste 11 Sudoeste 0 -- -- 51
2018-04-15 21:00:00 16.5 5 Oeste 20 Oeste 0 -- -- 46
2018-04-15 20:00:00 18.1 17 Oeste 28 Oeste 0 -- -- 42
2018-04-15 19:00:00 19.3 4 Nordeste 23 Sudeste 0 -- -- 54
2018-04-15 18:00:00 18.4 18 Sudeste 23 Sudeste 0 -- -- 54
2018-04-15 17:00:00 19.2 16 Sudeste 23 Sudeste 0 -- -- 48
2018-04-15 16:00:00 19.9 11 Sudeste 16 Sudeste 0 -- -- 46
2018-04-15 15:00:00 20.2 10 Sudeste 18 Este 0 -- -- 43
2018-04-15 14:00:00 18.9 5 Este 15 Este 0 -- -- 46
2018-04-15 13:00:00 17.2 8 Sudeste 14 Este 0 -- -- 53
2018-04-15 12:00:00 14.4 5 Sudeste 12 Sur 0 -- -- 63
2018-04-15 11:00:00 12.1 5 Este 12 Sudeste 0 -- -- 69
2018-04-15 10:00:00 9.2 2 Oeste 6 Nordeste 0 -- -- 85
2018-04-15 09:00:00 6.6 0 Calma 6 Noroeste 0 -- -- 91
2018-04-15 08:00:00 4.7 5 Noroeste 9 Noroeste 0 -- -- 97
2018-04-15 07:00:00 4.5 8 Norte 9 Norte 0 -- -- 97
2018-04-15 06:00:00 4.9 3 Sudoeste 14 Norte 0 -- -- 96
2018-04-15 05:00:00 5.5 8 Norte 12 Norte 0 -- -- 96
2018-04-15 04:00:00 5.9 6 Norte 11 Oeste 0 -- -- 95
2018-04-15 03:00:00 6.3 5 Noroeste 12 Noroeste 0 -- -- 95
2018-04-15 02:00:00 6.7 9 Oeste 14 Oeste 0 -- -- 93
2018-04-15 01:00:00 7.6 4 Oeste 12 Oeste 0 -- -- 92
2018-04-15 00:00:00 8.2 8 Noroeste 10 Oeste 0 -- -- 91
2018-04-14 23:00:00 9.5 4 Norte 11 Norte 0 -- -- 86
2018-04-14 22:00:00 10.5 7 Este 11 Este 0 -- -- 83
2018-04-14 21:00:00 12 4 Este 8 Sur 0 -- -- 75
2018-04-14 20:00:00 12.9 7 Sur 18 Sudeste 0 -- -- 69
2018-04-14 19:00:00 13.7 11 Sur 25 Sudeste 0 -- -- 65
2018-04-14 18:00:00 15 17 Sudeste 27 Sudeste 0 -- -- 58
2018-04-14 17:00:00 15.6 21 Sudeste 28 Sudeste 0 -- -- 54
2018-04-14 16:00:00 16.8 12 Sudeste 18 Sudeste 0 -- -- 50
2018-04-14 15:00:00 16 9 Sudeste 19 Sudeste 0 -- -- 54
2018-04-14 14:00:00 14.3 15 Sudeste 19 Sudeste 0 -- -- 60
2018-04-14 13:00:00 14.2 7 Sudeste 11 Sudeste 0 -- -- 65
2018-04-14 12:00:00 12.2 5 Este 10 Este 0 -- -- 70
2018-04-14 11:00:00 9.1 3 Noroeste 6 Sudeste 0 -- -- 82
2018-04-14 10:00:00 7.3 4 Oeste 9 Oeste 0 -- -- 92
2018-04-14 09:00:00 5.7 6 Noroeste 12 Oeste 0 -- -- 95
2018-04-14 08:00:00 5.5 8 Oeste 11 Oeste 0 -- -- 95
2018-04-14 07:00:00 5.7 3 Oeste 12 Noroeste 0 -- -- 96
2018-04-14 06:00:00 5.7 9 Noroeste 12 Oeste 0 -- -- 99
2018-04-14 05:00:00 5.9 6 Oeste 8 Oeste 0 -- -- 98
2018-04-14 04:00:00 6.1 2 Norte 14 Norte 0 -- -- 98
2018-04-14 03:00:00 6.2 6 Oeste 14 Noroeste 0 -- -- 97
2018-04-14 02:00:00 6.2 7 Norte 13 Noroeste 0.4 -- -- 98
2018-04-14 01:00:00 6.1 6 Noroeste 12 Norte 0 -- -- 98
2018-04-14 00:00:00 6.2 4 Noroeste 12 Noroeste 0 -- -- 98
2018-04-13 23:00:00 6.3 10 Oeste 13 Noroeste 0 -- -- 97
2018-04-13 22:00:00 6.9 7 Oeste 11 Noroeste 0 -- -- 96
2018-04-13 21:00:00 7.9 5 Norte 7 Norte 0 -- -- 90
2018-04-13 20:00:00 8.9 0 Calma 7 Noroeste 0 -- -- 86
2018-04-13 19:00:00 8.9 4 Oeste 18 Norte 0 -- -- 89
2018-04-13 18:00:00 8.2 9 Noroeste 18 Norte 0 -- -- 87
2018-04-13 17:00:00 7.6 9 Norte 18 Norte 0 -- -- 93
2018-04-13 16:00:00 7.4 8 Norte 17 Noroeste 1 -- -- 94
2018-04-13 15:00:00 7.7 5 Norte 10 Norte 2.4 -- -- 96
2018-04-13 14:00:00 7.8 7 Sur 12 Sur 4 -- -- 94
2018-04-13 13:00:00 7.9 4 Sudoeste 10 Oeste 3.4 -- -- 98
2018-04-13 12:00:00 7.8 0 Calma 6 Norte 2.8 -- -- 99
2018-04-13 11:00:00 7.5 3 Norte 5 Nordeste 2 -- -- 98
2018-04-13 10:00:00 7.3 4 Este 9 Oeste 1.2 -- -- 96
2018-04-13 09:00:00 7.2 6 Oeste 21 Norte 0 -- -- 95
2018-04-13 08:00:00 7 7 Norte 17 Norte 0.2 -- -- 95
2018-04-13 07:00:00 6.9 10 Norte 16 Norte 0 -- -- 93
2018-04-13 06:00:00 7.4 11 Noroeste 20 Norte 0 -- -- 88
2018-04-13 05:00:00 7.3 10 Noroeste 17 Norte 0 -- -- 91
2018-04-13 04:00:00 7.9 7 Noroeste 18 Norte 0 -- -- 88
2018-04-13 03:00:00 7.9 13 Norte 17 Norte 0 -- -- 87
2018-04-13 02:00:00 8 9 Norte 18 Noroeste 0 -- -- 88
2018-04-13 01:00:00 7.9 14 Norte 21 Norte 0 -- -- 87
2018-04-13 00:00:00 8.3 13 Norte 31 Norte 0 -- -- 83
2018-04-12 23:00:00 9.2 18 Norte 25 Norte 0 -- -- 81
2018-04-12 22:00:00 10.3 10 Este 26 Sudeste 0 -- -- 75
2018-04-12 21:00:00 10.8 19 Este 30 Este 0 -- -- 70
2018-04-12 20:00:00 12 12 Este 25 Este 0 -- -- 68
2018-04-12 19:00:00 13.2 14 Sudeste 19 Sudeste 0 -- -- 64
2018-04-12 18:00:00 13.3 13 Sudeste 23 Sudeste 0 -- -- 57
2018-04-12 17:00:00 14.2 18 Sudeste 29 Sudeste 0 -- -- 59
2018-04-12 16:00:00 14.3 23 Sudeste 34 Sudeste 0 -- -- 58
2018-04-12 15:00:00 14.9 10 Sudeste 15 Sur 0 -- -- 49
2018-04-12 14:00:00 14 10 Sudeste 15 Sudeste 0 -- -- 54
2018-04-12 13:00:00 12 9 Sudeste 15 Sudeste 0 -- -- 67
2018-04-12 12:00:00 8.8 9 Sur 13 Sudeste 0 -- -- 77
2018-04-12 11:00:00 6.1 8 Sudeste 13 Sudeste 0 -- -- 89
2018-04-12 10:00:00 3.5 3 Este 8 Este 0 -- -- 100
2018-04-12 09:00:00 1.9 3 Oeste 9 Norte 0 -- -- 100
2018-04-12 08:00:00 0.2 6 Norte 9 Norte 0 -- -- 100
2018-04-12 07:00:00 0.2 8 Noroeste 11 Norte 0.2 -- -- 100
2018-04-12 06:00:00 0.3 6 Noroeste 10 Noroeste 0 -- -- 100
2018-04-12 05:00:00 0.7 5 Noroeste 13 Norte 0 -- -- 100
2018-04-12 04:00:00 1.3 6 Noroeste 13 Noroeste 0 -- -- 99
2018-04-12 03:00:00 1.8 10 Norte 12 Norte 0 -- -- 100
2018-04-12 02:00:00 2.5 7 Noroeste 9 Noroeste 0 -- -- 99
2018-04-12 01:00:00 3.4 3 Norte 14 Oeste 0 -- -- 96
2018-04-12 00:00:00 4.1 9 Noroeste 18 Oeste 0 -- -- 93
2018-04-11 23:00:00 3.9 13 Oeste 16 Oeste 0 -- -- 97
2018-04-11 22:00:00 3.8 12 Oeste 17 Noroeste 0 -- -- 98
2018-04-11 21:00:00 4.3 9 Oeste 13 Oeste 0 -- -- 97
2018-04-11 20:00:00 5.2 6 Oeste 13 Oeste 0.2 -- -- 96
2018-04-11 19:00:00 5.6 3 Noroeste 16 Sur 0.4 -- -- 95
2018-04-11 18:00:00 6.8 3 Sudoeste 14 Noroeste 0 -- -- 92
2018-04-11 17:00:00 4.5 9 Noroeste 21 Norte 0 -- -- 97
2018-04-11 16:00:00 4.1 12 Noroeste 18 Oeste 1.4 -- -- 98
2018-04-11 15:00:00 4.9 6 Noroeste 9 Norte 2.8 -- -- 97
2018-04-11 14:00:00 5.3 4 Oeste 7 Oeste 1.6 -- -- 98
2018-04-11 13:00:00 5.4 3 Oeste 10 Oeste 0.4 -- -- 98
2018-04-11 12:00:00 4.5 6 Oeste 17 Oeste 0.8 -- -- 100
2018-04-11 11:00:00 3.7 13 Oeste 17 Oeste 2 -- -- 100
2018-04-11 10:00:00 4 6 Oeste 10 Oeste 3 -- -- 100
2018-04-11 09:00:00 3.5 10 Oeste 18 Oeste 1.4 -- -- 99
2018-04-11 08:00:00 3.6 15 Oeste 26 Oeste 2 -- -- 97
2018-04-11 07:00:00 3.7 19 Oeste 26 Oeste 4 -- -- 99
2018-04-11 06:00:00 3.6 5 Noroeste 19 Oeste 5.4 -- -- 100
2018-04-11 05:00:00 3.6 6 Noroeste 13 Noroeste 3.6 -- -- 99
2018-04-11 04:00:00 3.4 8 Oeste 17 Norte 0.2 -- -- 99
2018-04-11 03:00:00 3.4 8 Noroeste 11 Noroeste 0.6 -- -- 100
2018-04-11 02:00:00 3.5 4 Oeste 12 Norte 0.6 -- -- 99
2018-04-11 01:00:00 3.7 9 Noroeste 24 Norte 0.6 -- -- 98
2018-04-11 00:00:00 3.3 20 Norte 26 Norte 0.2 -- -- 97
2018-04-10 23:00:00 3.4 15 Norte 20 Norte 0.6 -- -- 97
2018-04-10 22:00:00 4.2 11 Norte 18 Nordeste 1.8 -- -- 96
2018-04-10 21:00:00 4.8 5 Este 23 Este 1.8 -- -- 96
2018-04-10 20:00:00 5.1 10 Este 23 Este 4.2 -- -- 98
2018-04-10 19:00:00 5.1 0 Calma 20 Oeste 3 -- -- 99
2018-04-10 18:00:00 5.7 10 Oeste 17 Oeste 0.6 -- -- 98
2018-04-10 17:00:00 6 7 Noroeste 13 Oeste 0.8 -- -- 98
2018-04-10 16:00:00 6.1 10 Oeste 17 Oeste 0.4 -- -- 96
2018-04-10 15:00:00 5.7 9 Oeste 12 Oeste 0.4 -- -- 97
2018-04-10 14:00:00 5.4 6 Sudoeste 17 Sudeste 1 -- -- 94
2018-04-10 13:00:00 5.1 6 Este 14 Sudeste 2.2 -- -- 96
2018-04-10 12:00:00 5 9 Sur 13 Sudeste 1.4 -- -- 97
2018-04-10 11:00:00 4.9 3 Sudoeste 6 Sudoeste 0 -- -- 96
2018-04-10 10:00:00 4.4 0 Calma 6 Este 0 -- -- 97
2018-04-10 09:00:00 3.9 0 Calma 9 Norte 0 -- -- 98
2018-04-10 08:00:00 3.6 5 Noroeste 9 Sudoeste 0 -- -- 98
2018-04-10 07:00:00 3.5 2 Nordeste 8 Este 0 -- -- 98
2018-04-10 06:00:00 3.4 0 Calma 11 Este 0.2 -- -- 97
2018-04-10 05:00:00 3.5 5 Nordeste 17 Este 0.6 -- -- 98
2018-04-10 04:00:00 4.1 5 Este 10 Sudeste 1.4 -- -- 100
2018-04-10 03:00:00 4.3 2 Sur 9 Sudeste 0.6 -- -- 99
2018-04-10 02:00:00 4.4 0 Calma 4 Noroeste 0 -- -- 99
2018-04-10 01:00:00 4.3 4 Sur 5 Sur 0 -- -- 99
2018-04-10 00:00:00 4.5 3 Este 6 Nordeste 0.4 -- -- 98
2018-04-09 23:00:00 4.6 2 Nordeste 14 Sudeste 0 -- -- 98
2018-04-09 22:00:00 4.6 8 Sudeste 12 Sudeste 0 -- -- 97
2018-04-09 21:00:00 4.7 4 Sudeste 15 Oeste 1.2 -- -- 97
2018-04-09 20:00:00 4.7 6 Noroeste 21 Norte 0.2 -- -- 95
2018-04-09 19:00:00 4.6 8 Norte 18 Noroeste 1.8 -- -- 95
2018-04-09 18:00:00 5.1 7 Sudoeste 57 Sudoeste 5.4 -- -- 87
2018-04-09 17:00:00 9 37 Sudoeste 55 Sudoeste 0 -- -- 69
2018-04-09 16:00:00 11.9 6 Sudeste 29 Este 0 -- -- 69
2018-04-09 15:00:00 12.8 11 Este 32 Sudoeste 0 -- -- 75
2018-04-09 14:00:00 12.1 21 Sur 34 Sudoeste 0 -- -- 70
2018-04-09 13:00:00 13.3 10 Sudeste 15 Sudeste 0 -- -- 69
2018-04-09 12:00:00 11.2 5 Este 11 Este 0 -- -- 84
2018-04-09 11:00:00 10 5 Sur 11 Este 0 -- -- 80
2018-04-09 10:00:00 7.6 2 Sudoeste 6 Noroeste 0 -- -- 92
2018-04-09 09:00:00 4.5 6 Oeste 12 Oeste 0 -- -- 100
2018-04-09 08:00:00 3.4 3 Noroeste 7 Oeste 0 -- -- 100
2018-04-09 07:00:00 3 7 Oeste 8 Oeste 0 -- -- 100
2018-04-09 06:00:00 3.9 5 Norte 6 Norte 0 -- -- 100
2018-04-09 05:00:00 4.3 8 Noroeste 12 Oeste 0 -- -- 98
2018-04-09 04:00:00 4.9 6 Noroeste 10 Oeste 0 -- -- 98
2018-04-09 03:00:00 5.5 5 Nordeste 12 Noroeste 0 -- -- 98
2018-04-09 02:00:00 5.6 12 Noroeste 15 Oeste 0 -- -- 97
2018-04-09 01:00:00 5.5 6 Noroeste 13 Noroeste 0 -- -- 98
2018-04-09 00:00:00 5.9 2 Noroeste 8 Norte 0 -- -- 98
2018-04-08 23:00:00 6.9 2 Norte 13 Noroeste 0 -- -- 96
2018-04-08 22:00:00 7.3 7 Oeste 9 Noroeste 0 -- -- 96
2018-04-08 21:00:00 8.6 6 Nordeste 8 Nordeste 0 -- -- 91
2018-04-08 20:00:00 9.6 2 Sur 6 Sudeste 0 -- -- 83
2018-04-08 19:00:00 9.8 3 Sur 8 Sudeste 0 -- -- 83
2018-04-08 18:00:00 9.9 4 Sudeste 6 Sudeste 0 -- -- 86
2018-04-08 17:00:00 9.8 3 Sur 7 Sudoeste 0 -- -- 87
2018-04-08 16:00:00 9.5 4 Oeste 9 Sudoeste 0 -- -- 88
2018-04-08 15:00:00 9.3 0 Calma 7 Este 0 -- -- 97
2018-04-08 14:00:00 8.5 3 Oeste 9 Oeste 0 -- -- 99
2018-04-08 13:00:00 7.6 0 Calma 18 Sudeste 0.2 -- -- 100
2018-04-08 12:00:00 7.1 15 Sudeste 21 Sudeste 0.8 -- -- 100
2018-04-08 11:00:00 7.4 13 Sudeste 17 Sudeste 0.4 -- -- 100
2018-04-08 10:00:00 7.9 12 Sudeste 17 Sudeste 2.6 -- -- 100
2018-04-08 09:00:00 8.4 2 Sur 8 Nordeste 2 -- -- 99
2018-04-08 08:00:00 8.4 3 Sudeste 8 Sur 2.8 -- -- 98
2018-04-08 07:00:00 8.6 4 Sudeste 14 Sur 4 -- -- 99
2018-04-08 06:00:00 9 6 Sur 15 Oeste 0.8 -- -- 100
2018-04-08 05:00:00 9.4 4 Oeste 8 Oeste 1.4 -- -- 100
2018-04-08 04:00:00 9.5 2 Sur 10 Oeste 4 -- -- 100
2018-04-08 03:00:00 9.6 11 Oeste 17 Oeste 2.4 -- -- 100
2018-04-08 02:00:00 10.2 3 Sudeste 12 Este 3.6 -- -- 100
2018-04-08 01:00:00 10.5 11 Sur 14 Sudeste 0.8 -- -- 100
2018-04-08 00:00:00 10.5 4 Oeste 7 Norte 0 -- -- 99
2018-04-07 23:00:00 10.8 3 Norte 12 Norte 1 -- -- 98
2018-04-07 22:00:00 11 5 Noroeste 12 Norte 1.4 -- -- 99
2018-04-07 21:00:00 11.4 5 Oeste 19 Norte 1.4 -- -- 97
2018-04-07 20:00:00 11.6 8 Oeste 15 Sudoeste 1.4 -- -- 96
2018-04-07 19:00:00 11.9 12 Norte 20 Norte 1 -- -- 93
2018-04-07 18:00:00 12.9 11 Norte 20 Norte 0.2 -- -- 87
2018-04-07 17:00:00 12.7 11 Norte 18 Norte 0 -- -- 88
2018-04-07 16:00:00 12.9 12 Norte 17 Norte 0 -- -- 85
2018-04-07 15:00:00 13.1 15 Norte 19 Norte 0.2 -- -- 82
2018-04-07 14:00:00 13.2 12 Noroeste 18 Noroeste 0 -- -- 85
2018-04-07 13:00:00 13 4 Norte 8 Oeste 0 -- -- 87
2018-04-07 12:00:00 12.9 4 Noroeste 10 Noroeste 0 -- -- 86
2018-04-07 11:00:00 12.6 3 Oeste 8 Oeste 0 -- -- 92
2018-04-07 10:00:00 10.6 5 Oeste 12 Oeste 0 -- -- 96
2018-04-07 09:00:00 9.6 7 Oeste 12 Oeste 0 -- -- 98
2018-04-07 08:00:00 9.3 7 Noroeste 14 Oeste 0 -- -- 99
2018-04-07 07:00:00 9.4 3 Norte 7 Norte 0.2 -- -- 99
2018-04-07 06:00:00 9.6 0 Calma 11 Oeste 0 -- -- 98
2018-04-07 05:00:00 9.7 6 Oeste 9 Oeste 0 -- -- 97
2018-04-07 04:00:00 9.7 6 Oeste 13 Oeste 0.2 -- -- 96
2018-04-07 03:00:00 9.9 6 Noroeste 16 Norte 0.8 -- -- 97
2018-04-07 02:00:00 10.1 5 Nordeste 18 Sudoeste 0.2 -- -- 94
2018-04-07 01:00:00 10.4 7 Norte 11 Norte 0 -- -- 94
2018-04-07 00:00:00 10.4 7 Noroeste 14 Oeste 0 -- -- 94
2018-04-06 23:00:00 10.7 8 Noroeste 15 Norte 0.2 -- -- 92
2018-04-06 22:00:00 11.1 13 Oeste 15 Oeste 0.2 -- -- 87
2018-04-06 21:00:00 12 10 Oeste 16 Oeste 0.2 -- -- 83
2018-04-06 20:00:00 13.7 4 Norte 22 Oeste 0 -- -- 63
2018-04-06 19:00:00 15.9 15 Sudoeste 26 Sudeste 0 -- -- 49
2018-04-06 18:00:00 17.4 19 Sur 32 Sudeste 0 -- -- 46
2018-04-06 17:00:00 19.6 16 Sudeste 29 Sudeste 0 -- -- 38
2018-04-06 16:00:00 18.7 10 Sur 30 Sudeste 0 -- -- 39
2018-04-06 15:00:00 19.5 14 Sur 27 Sudeste 0 -- -- 35
2018-04-06 14:00:00 19.5 11 Sudeste 19 Sudeste 0 -- -- 39
2018-04-06 13:00:00 17.5 7 Oeste 13 Oeste 0 -- -- 47
2018-04-06 12:00:00 15.7 4 Este 11 Este 0 -- -- 49
2018-04-06 11:00:00 12 4 Oeste 8 Oeste 0 -- -- 67
2018-04-06 10:00:00 9.4 3 Sudoeste 8 Este 0 -- -- 75
2018-04-06 09:00:00 6.4 4 Noroeste 14 Noroeste 0 -- -- 86
2018-04-06 08:00:00 4.4 8 Noroeste 13 Noroeste 0 -- -- 90
2018-04-06 07:00:00 4.8 8 Noroeste 15 Norte 0 -- -- 90
2018-04-06 06:00:00 5 4 Noroeste 11 Noroeste 0 -- -- 91
2018-04-06 05:00:00 5.4 6 Noroeste 13 Norte 0 -- -- 89
2018-04-06 04:00:00 6.5 6 Noroeste 10 Noroeste 0 -- -- 84
2018-04-06 03:00:00 6.9 8 Oeste 13 Noroeste 0 -- -- 85
2018-04-06 02:00:00 8 4 Noroeste 13 Oeste 0 -- -- 81
2018-04-06 01:00:00 8.7 9 Oeste 15 Noroeste 0 -- -- 79
2018-04-06 00:00:00 9.4 7 Noroeste 13 Oeste 0 -- -- 76
2018-04-05 23:00:00 10.4 9 Oeste 14 Oeste 0 -- -- 72
2018-04-05 22:00:00 11.9 9 Noroeste 10 Noroeste 0 -- -- 67
2018-04-05 21:00:00 14 7 Nordeste 12 Sudeste 0 -- -- 57
2018-04-05 20:00:00 15.4 13 Sudeste 26 Sudeste 0 -- -- 53
2018-04-05 19:00:00 17.1 16 Sudeste 25 Sudeste 0 -- -- 51
2018-04-05 18:00:00 18.8 13 Sudeste 18 Sudeste 0 -- -- 39
2018-04-05 17:00:00 18.9 12 Sudeste 17 Sudeste 0 -- -- 37
2018-04-05 16:00:00 18.6 12 Sudeste 19 Sudeste 0 -- -- 43
2018-04-05 15:00:00 17.6 11 Sudeste 17 Sudeste 0 -- -- 47
2018-04-05 14:00:00 16.8 13 Sudeste 18 Sudeste 0 -- -- 49
2018-04-05 13:00:00 14.9 4 Este 13 Este 0 -- -- 59
2018-04-05 12:00:00 12.9 5 Sudeste 12 Este 0 -- -- 61
2018-04-05 11:00:00 10.4 5 Este 11 Sudeste 0 -- -- 81
2018-04-05 10:00:00 6.9 2 Oeste 9 Norte 0 -- -- 92
2018-04-05 09:00:00 4.4 4 Norte 11 Norte 0 -- -- 100
2018-04-05 08:00:00 2.6 8 Norte 14 Noroeste 0 -- -- 99
2018-04-05 07:00:00 3 5 Norte 12 Norte 0 -- -- 99
2018-04-05 06:00:00 3.5 5 Norte 16 Norte 0 -- -- 98
2018-04-05 05:00:00 4.1 8 Norte 12 Norte 0 -- -- 98
2018-04-05 04:00:00 4.8 10 Norte 13 Norte 0.2 -- -- 98
2018-04-05 03:00:00 5.6 11 Norte 13 Norte 0 -- -- 98
2018-04-05 02:00:00 6.3 4 Noroeste 13 Noroeste 0 -- -- 96
2018-04-05 01:00:00 6.7 9 Norte 12 Norte 0 -- -- 97
2018-04-05 00:00:00 7.1 4 Sudoeste 12 Noroeste 0.2 -- -- 96
2018-04-04 23:00:00 7.5 5 Norte 12 Nordeste 0 -- -- 96
2018-04-04 22:00:00 8.1 7 Norte 13 Oeste 0.4 -- -- 95
2018-04-04 21:00:00 8.5 4 Oeste 24 Oeste 1.6 -- -- 93
2018-04-04 20:00:00 9.4 8 Oeste 13 Oeste 0 -- -- 88
2018-04-04 19:00:00 11 4 Norte 19 Noroeste 1.8 -- -- 81
2018-04-04 18:00:00 13.8 3 Noroeste 38 Oeste 0 -- -- 55
2018-04-04 17:00:00 13.5 14 Oeste 37 Sudoeste 0 -- -- 58
2018-04-04 16:00:00 13.5 8 Noroeste 23 Oeste 0 -- -- 54
2018-04-04 15:00:00 13.4 15 Oeste 27 Oeste 0 -- -- 54
2018-04-04 14:00:00 14.1 13 Sudoeste 24 Oeste 0 -- -- 51
2018-04-04 13:00:00 13.7 11 Sur 20 Sur 0 -- -- 50
2018-04-04 12:00:00 12 10 Sudeste 20 Sudeste 0 -- -- 64
2018-04-04 11:00:00 12.4 13 Este 23 Este 0 -- -- 69
2018-04-04 10:00:00 8.7 5 Sudoeste 11 Oeste 0 -- -- 90
2018-04-04 09:00:00 7.4 5 Norte 12 Noroeste 0 -- -- 93
2018-04-04 08:00:00 7.3 6 Noroeste 9 Noroeste 0 -- -- 93
2018-04-04 07:00:00 7.9 4 Noroeste 10 Noroeste 0 -- -- 92
2018-04-04 06:00:00 8.3 4 Sur 13 Noroeste 0 -- -- 90
2018-04-04 05:00:00 8.1 7 Noroeste 13 Noroeste 0 -- -- 92
2018-04-04 04:00:00 8.9 6 Oeste 17 Norte 0.2 -- -- 87
2018-04-04 03:00:00 10.2 25 Sudoeste 52 Sudoeste 0.2 -- -- 76
2018-04-04 02:00:00 11.4 4 Nordeste 17 Sudeste 0 -- -- 81
2018-04-04 01:00:00 11.3 10 Sudeste 17 Este 0 -- -- 78
2018-04-04 00:00:00 11.1 5 Noroeste 14 Este 0 -- -- 76
2018-04-03 23:00:00 11.8 3 Nordeste 15 Oeste 0 -- -- 70
2018-04-03 22:00:00 12.1 8 Oeste 15 Oeste 0 -- -- 71
2018-04-03 21:00:00 13.8 8 Noroeste 12 Noroeste 0 -- -- 63
2018-04-03 20:00:00 15.4 8 Sudeste 18 Sudeste 0 -- -- 53
2018-04-03 19:00:00 16.8 15 Sudeste 23 Sudeste 0 -- -- 48
2018-04-03 18:00:00 16.5 10 Sudeste 18 Sudeste 0 -- -- 49
2018-04-03 17:00:00 17.1 9 Este 14 Este 0 -- -- 50
2018-04-03 16:00:00 17 5 Sudoeste 12 Sur 0 -- -- 51
2018-04-03 15:00:00 15.7 4 Nordeste 12 Nordeste 0 -- -- 54
2018-04-03 14:00:00 13.3 3 Oeste 14 Oeste 0 -- -- 64
2018-04-03 13:00:00 13.3 4 Oeste 14 Oeste 0 -- -- 65
2018-04-03 12:00:00 11.8 10 Oeste 14 Oeste 0 -- -- 72
2018-04-03 11:00:00 10.2 3 Oeste 8 Oeste 0 -- -- 79
2018-04-03 10:00:00 7.9 6 Oeste 13 Oeste 0.2 -- -- 90
2018-04-03 09:00:00 6.1 12 Noroeste 21 Norte 1.4 -- -- 91
2018-04-03 08:00:00 5.1 5 Norte 10 Norte 0 -- -- 85
2018-04-03 07:00:00 5.3 4 Noroeste 6 Oeste 0 -- -- 80
2018-04-03 06:00:00 5.3 5 Oeste 13 Noroeste 0 -- -- 78
2018-04-03 05:00:00 5.3 6 Noroeste 11 Noroeste 0 -- -- 77
2018-04-03 04:00:00 5.7 5 Noroeste 15 Oeste 0 -- -- 73
2018-04-03 03:00:00 6 11 Noroeste 17 Noroeste 0 -- -- 72
2018-04-03 02:00:00 5.9 8 Noroeste 13 Norte 0 -- -- 73
2018-04-03 01:00:00 7 6 Noroeste 17 Noroeste 0 -- -- 65
2018-04-03 00:00:00 7.7 8 Noroeste 15 Noroeste 0 -- -- 63
2018-04-02 23:00:00 8.9 8 Noroeste 15 Noroeste 0 -- -- 59
2018-04-02 22:00:00 9.9 10 Norte 17 Noroeste 0 -- -- 58
2018-04-02 21:00:00 12.1 8 Noroeste 12 Norte 0 -- -- 49
2018-04-02 20:00:00 15.4 10 Norte 14 Norte 0 -- -- 36
2018-04-02 19:00:00 15.1 8 Noroeste 13 Noroeste 0 -- -- 39
2018-04-02 18:00:00 16.2 2 Sudeste 16 Sudeste 0 -- -- 32
2018-04-02 17:00:00 16.1 7 Sur 23 Sudeste 0 -- -- 34
2018-04-02 16:00:00 16.4 13 Sudeste 24 Sudeste 0 -- -- 33
2018-04-02 15:00:00 16.5 12 Sudeste 22 Sudeste 0 -- -- 34
2018-04-02 14:00:00 16.1 12 Sudeste 21 Sudeste 0 -- -- 37
2018-04-02 13:00:00 15 5 Sudeste 11 Sudeste 0 -- -- 47
2018-04-02 12:00:00 13.3 6 Este 11 Este 0 -- -- 56
2018-04-02 11:00:00 11.4 3 Sudeste 10 Este 0 -- -- 69
2018-04-02 10:00:00 8.1 3 Oeste 9 Oeste 0 -- -- 79
2018-04-02 09:00:00 5.7 3 Norte 13 Oeste 0 -- -- 87
2018-04-02 08:00:00 4.9 3 Norte 10 Norte 0 -- -- 87
2018-04-02 07:00:00 5.9 5 Norte 13 Norte 0 -- -- 83
2018-04-02 06:00:00 5.5 10 Oeste 20 Noroeste 0 -- -- 87
2018-04-02 05:00:00 5.6 9 Norte 13 Norte 0 -- -- 86
2018-04-02 04:00:00 6.5 3 Nordeste 5 Sudeste 0 -- -- 83
2018-04-02 03:00:00 7.1 3 Sudoeste 18 Oeste 0 -- -- 80
2018-04-02 02:00:00 7.5 8 Noroeste 14 Noroeste 0 -- -- 80
2018-04-02 01:00:00 8 9 Noroeste 14 Norte 0 -- -- 80
2018-04-02 00:00:00 9.2 7 Noroeste 12 Noroeste 0 -- -- 74
2018-04-01 23:00:00 9.6 8 Noroeste 10 Noroeste 0 -- -- 73
2018-04-01 22:00:00 10.7 4 Nordeste 10 Norte 0 -- -- 66
2018-04-01 21:00:00 11.8 4 Nordeste 13 Sudeste 0 -- -- 65
2018-04-01 20:00:00 12.7 10 Sudeste 19 Sudeste 0 -- -- 60
2018-04-01 19:00:00 14 16 Sudeste 26 Sudeste 0 -- -- 55
2018-04-01 18:00:00 15.1 19 Sudeste 27 Sudeste 0 -- -- 51
2018-04-01 17:00:00 15.7 17 Sudeste 25 Sudeste 0 -- -- 47
2018-04-01 16:00:00 15.8 20 Sudeste 27 Sudeste 0 -- -- 46
2018-04-01 15:00:00 15.8 15 Sudeste 22 Sudeste 0 -- -- 39
2018-04-01 14:00:00 15.2 9 Sudeste 15 Sur 0 -- -- 36
2018-04-01 13:00:00 12.8 7 Sur 13 Sudeste 0 -- -- 33
2018-04-01 12:00:00 10.5 7 Sudeste 12 Este 0 -- -- 41
2018-04-01 11:00:00 7 3 Sudoeste 8 Sudoeste 0 -- -- 62
2018-04-01 10:00:00 3.4 3 Sudeste 9 Sudeste 0 -- -- 72
2018-04-01 09:00:00 0.3 3 Nordeste 9 Noroeste 0 -- -- 84
2018-04-01 08:00:00 -1.7 10 Noroeste 13 Norte 0 -- -- 91
2018-04-01 07:00:00 -1 9 Norte 13 Norte 0 -- -- 85
2018-04-01 06:00:00 -0.8 10 Noroeste 15 Noroeste 0 -- -- 85
2018-04-01 05:00:00 -0.7 12 Norte 15 Norte 0 -- -- 86
2018-04-01 04:00:00 -0.1 7 Noroeste 17 Norte 0 -- -- 83
2018-04-01 03:00:00 0.5 7 Noroeste 21 Norte 0 -- -- 83
2018-04-01 02:00:00 0.9 16 Norte 21 Norte 0 -- -- 82
2018-04-01 01:00:00 1.7 15 Norte 20 Noroeste 0 -- -- 79
2018-04-01 00:00:00 3 9 Norte 17 Norte 0 -- -- 74
2018-03-31 23:00:00 4.1 8 Norte 16 Norte 0 -- -- 67
2018-03-31 22:00:00 5.7 3 Sudeste 19 Noroeste 0 -- -- 62
2018-03-31 21:00:00 6.2 11 Noroeste 29 Noroeste 0 -- -- 60
2018-03-31 20:00:00 7.3 22 Noroeste 37 Oeste 0 -- -- 59
2018-03-31 19:00:00 9.6 24 Oeste 42 Oeste 0 -- -- 50
2018-03-31 18:00:00 9.8 34 Oeste 57 Oeste 0 -- -- 51
2018-03-31 17:00:00 10.3 36 Oeste 58 Oeste 0 -- -- 50
2018-03-31 16:00:00 11 35 Oeste 51 Oeste 0 -- -- 45
2018-03-31 15:00:00 10.5 34 Oeste 54 Oeste 0 -- -- 47
2018-03-31 14:00:00 9.4 35 Oeste 57 Oeste 0 -- -- 55
2018-03-31 13:00:00 8.3 10 Noroeste 30 Noroeste 0 -- -- 64
2018-03-31 12:00:00 6.1 30 Noroeste 49 Oeste 0 -- -- 79
2018-03-31 11:00:00 4.5 5 Norte 19 Noroeste 0.4 -- -- 89
2018-03-31 10:00:00 3.9 4 Norte 11 Oeste 0 -- -- 90
2018-03-31 09:00:00 3.4 5 Oeste 11 Oeste 0 -- -- 89
2018-03-31 08:00:00 2.8 7 Noroeste 19 Sudeste 0 -- -- 89
2018-03-31 07:00:00 3 13 Sudeste 23 Oeste 0 -- -- 89
2018-03-31 06:00:00 3.4 14 Noroeste 29 Oeste 0.2 -- -- 80
2018-03-31 05:00:00 3 23 Oeste 36 Oeste 0.4 -- -- 88
2018-03-31 04:00:00 4.7 4 Nordeste 14 Nordeste 0 -- -- 67
2018-03-31 03:00:00 4.3 5 Nordeste 10 Nordeste 0 -- -- 72
2018-03-31 02:00:00 4.3 3 Norte 13 Sudoeste 0 -- -- 67
2018-03-31 01:00:00 4.1 6 Norte 11 Noroeste 0 -- -- 68
2018-03-31 00:00:00 4 5 Noroeste 13 Oeste 0 -- -- 65
2018-03-30 23:00:00 4.6 13 Oeste 17 Oeste 0 -- -- 57
2018-03-30 22:00:00 6.7 4 Noroeste 10 Norte 0 -- -- 51
2018-03-30 21:00:00 8.6 6 Sudoeste 25 Oeste 0 -- -- 40
2018-03-30 20:00:00 10.9 18 Sudoeste 28 Oeste 0 -- -- 39
2018-03-30 19:00:00 13.1 17 Sudoeste 24 Oeste 0 -- -- 37
2018-03-30 18:00:00 13.1 10 Noroeste 23 Este 0 -- -- 39
2018-03-30 17:00:00 12.8 12 Sudeste 25 Este 0 -- -- 42
2018-03-30 16:00:00 13.9 13 Sudeste 35 Oeste 0 -- -- 39
2018-03-30 15:00:00 12.5 8 Sur 23 Sudoeste 0 -- -- 43
2018-03-30 14:00:00 11.7 13 Oeste 23 Noroeste 0 -- -- 39
2018-03-30 13:00:00 10.4 12 Oeste 27 Oeste 0 -- -- 44
2018-03-30 12:00:00 10.3 19 Oeste 27 Oeste 0 -- -- 49
2018-03-30 11:00:00 8.2 5 Sudoeste 10 Sudoeste 0 -- -- 76
2018-03-30 10:00:00 7.4 4 Oeste 10 Nordeste 0 -- -- 85
2018-03-30 09:00:00 6.2 7 Sudoeste 10 Sur 0.2 -- -- 92
2018-03-30 08:00:00 6.4 9 Sudoeste 18 Sudeste 0 -- -- 91
2018-03-30 07:00:00 6.2 15 Sudeste 18 Sudeste 0 -- -- 96
2018-03-30 06:00:00 6.3 8 Sudeste 15 Norte 0 -- -- 94
2018-03-30 05:00:00 6.7 11 Sur 17 Sur 0 -- -- 90
2018-03-30 04:00:00 6.8 4 Sur 11 Este 0 -- -- 94
2018-03-30 03:00:00 7.1 3 Nordeste 17 Oeste 0 -- -- 94
2018-03-30 02:00:00 7.2 6 Sudoeste 24 Sudoeste 0.2 -- -- 93
2018-03-30 01:00:00 7.4 4 Noroeste 14 Noroeste 1.2 -- -- 92
2018-03-30 00:00:00 8.7 10 Norte 24 Sudeste 0.2 -- -- 77
2018-03-29 23:00:00 9.3 5 Sur 10 Sur 0 -- -- 60
2018-03-29 22:00:00 10.1 7 Oeste 10 Noroeste 0 -- -- 51
2018-03-29 21:00:00 11.6 3 Noroeste 8 Noroeste 0 -- -- 46
2018-03-29 20:00:00 13.7 5 Norte 11 Oeste 0 -- -- 34
2018-03-29 19:00:00 15.6 6 Noroeste 25 Sudoeste 0 -- -- 33
2018-03-29 18:00:00 15.3 12 Sudoeste 34 Sur 0 -- -- 35
2018-03-29 17:00:00 13.9 16 Sur 35 Sur 0 -- -- 42
2018-03-29 16:00:00 13.4 12 Sur 31 Sudeste 0 -- -- 46
2018-03-29 15:00:00 14.1 22 Sudeste 35 Sudeste 0 -- -- 46
2018-03-29 14:00:00 14.4 6 Oeste 20 Oeste 0 -- -- 39
2018-03-29 13:00:00 14.7 8 Noroeste 28 Oeste 0 -- -- 40
2018-03-29 12:00:00 13.6 10 Oeste 24 Oeste 0 -- -- 41
2018-03-29 11:00:00 12.3 4 Sur 12 Este 0 -- -- 64
2018-03-29 10:00:00 9.3 5 Este 11 Norte 0 -- -- 75
2018-03-29 09:00:00 6.5 8 Norte 14 Norte 0 -- -- 87
2018-03-29 08:00:00 5.8 9 Norte 17 Norte 0 -- -- 88
2018-03-29 07:00:00 6.3 13 Norte 16 Norte 0 -- -- 85
2018-03-29 06:00:00 7.9 4 Sudeste 13 Oeste 0 -- -- 77
2018-03-29 05:00:00 9.1 9 Oeste 14 Oeste 0 -- -- 74
2018-03-29 04:00:00 9 4 Noroeste 8 Norte 0 -- -- 68
2018-03-29 03:00:00 9.1 2 Este 9 Norte 0 -- -- 63
2018-03-29 02:00:00 9.4 4 Oeste 10 Norte 0 -- -- 61
2018-03-29 01:00:00 10.1 5 Norte 11 Noroeste 0 -- -- 56
2018-03-29 00:00:00 10.1 7 Noroeste 17 Norte 0 -- -- 55
2018-03-28 23:00:00 11.1 10 Noroeste 14 Noroeste 0 -- -- 52
2018-03-28 22:00:00 12.4 8 Noroeste 14 Oeste 0 -- -- 48
2018-03-28 21:00:00 14.2 11 Noroeste 13 Oeste 0 -- -- 44
2018-03-28 20:00:00 18.4 6 Noroeste 20 Oeste 0 -- -- 32
2018-03-28 19:00:00 18.5 13 Oeste 36 Oeste 0 -- -- 31
2018-03-28 18:00:00 20.1 29 Oeste 48 Noroeste 0 -- -- 24
2018-03-28 17:00:00 20.7 30 Oeste 41 Oeste 0 -- -- 26
2018-03-28 16:00:00 21.1 23 Oeste 41 Oeste 0 -- -- 25
2018-03-28 15:00:00 20.9 17 Oeste 28 Oeste 0 -- -- 28
2018-03-28 14:00:00 20.4 13 Sudeste 20 Sudeste 0 -- -- 37
2018-03-28 13:00:00 18.9 11 Sudeste 15 Sudeste 0 -- -- 42
2018-03-28 12:00:00 15.9 9 Sudeste 15 Sudeste 0 -- -- 52
2018-03-28 11:00:00 11.9 4 Norte 9 Este 0 -- -- 63
2018-03-28 10:00:00 8.7 2 Sudoeste 15 Norte 0 -- -- 78
2018-03-28 09:00:00 5.7 8 Norte 20 Noroeste 0 -- -- 87
2018-03-28 08:00:00 4.5 11 Norte 15 Noroeste 0 -- -- 91
2018-03-28 07:00:00 5.1 9 Noroeste 15 Norte 0 -- -- 90
2018-03-28 06:00:00 5.5 8 Norte 12 Norte 0 -- -- 89
2018-03-28 05:00:00 6.1 8 Noroeste 13 Norte 0 -- -- 89
2018-03-28 04:00:00 6.7 8 Norte 15 Norte 0 -- -- 85
2018-03-28 03:00:00 7.8 7 Norte 14 Norte 0 -- -- 82
2018-03-28 02:00:00 9.3 10 Norte 14 Norte 0 -- -- 75
2018-03-28 01:00:00 9.6 8 Este 19 Norte 0 -- -- 75
2018-03-28 00:00:00 10.7 9 Norte 23 Oeste 0 -- -- 72
2018-03-27 23:00:00 12.2 11 Oeste 29 Oeste 0 -- -- 68
2018-03-27 22:00:00 12.3 19 Oeste 34 Oeste 0 -- -- 67
2018-03-27 21:00:00 13.2 21 Oeste 35 Oeste 0 -- -- 62
2018-03-27 20:00:00 15.4 17 Oeste 50 Oeste 0 -- -- 53
2018-03-27 19:00:00 17.1 36 Oeste 50 Oeste 0 -- -- 48
2018-03-27 18:00:00 19.4 37 Oeste 51 Oeste 0 -- -- 43
2018-03-27 17:00:00 20.6 20 Sudoeste 32 Oeste 0 -- -- 42
2018-03-27 16:00:00 21.6 9 Sudoeste 17 Sudoeste 0 -- -- 40
2018-03-27 15:00:00 19 10 Sudeste 17 Sudeste 0 -- -- 49
2018-03-27 14:00:00 15.7 11 Sudeste 17 Sudeste 0 -- -- 52
2018-03-27 13:00:00 14.6 10 Sudeste 13 Sudeste 0 -- -- 51
2018-03-27 12:00:00 12.1 6 Sudeste 13 Este 0 -- -- 52
2018-03-27 11:00:00 7.5 4 Sudoeste 12 Oeste 0 -- -- 66
2018-03-27 10:00:00 3.4 5 Oeste 10 Oeste 0 -- -- 81
2018-03-27 09:00:00 1.8 4 Oeste 10 Norte 0 -- -- 85
2018-03-27 08:00:00 1 3 Oeste 10 Norte 0 -- -- 84
2018-03-27 07:00:00 1 5 Noroeste 9 Oeste 0 -- -- 82
2018-03-27 06:00:00 1 5 Norte 12 Norte 0 -- -- 78
2018-03-27 05:00:00 0.8 7 Norte 12 Noroeste 0 -- -- 79
2018-03-27 04:00:00 1.4 9 Norte 19 Norte 0 -- -- 72
2018-03-27 03:00:00 2 13 Norte 18 Norte 0 -- -- 67
2018-03-27 02:00:00 2.9 11 Norte 15 Norte 0 -- -- 63
2018-03-27 01:00:00 3.8 8 Norte 17 Oeste 0 -- -- 59
2018-03-27 00:00:00 4.9 10 Noroeste 15 Oeste 0 -- -- 55
2018-03-26 23:00:00 5.9 11 Oeste 17 Oeste 0 -- -- 52
2018-03-26 22:00:00 6.7 10 Oeste 28 Oeste 0 -- -- 48
2018-03-26 21:00:00 8.5 25 Oeste 32 Oeste 0 -- -- 40
2018-03-26 20:00:00 10.7 21 Noroeste 32 Norte 0 -- -- 37
2018-03-26 19:00:00 12.8 21 Noroeste 32 Oeste 0 -- -- 41
2018-03-26 18:00:00 14.3 18 Noroeste 31 Noroeste 0 -- -- 41
2018-03-26 17:00:00 14.2 12 Noroeste 50 Noroeste 0 -- -- 40
2018-03-26 16:00:00 14 29 Oeste 42 Norte 0 -- -- 48
2018-03-26 15:00:00 14.8 13 Norte 33 Norte 0 -- -- 42
2018-03-26 14:00:00 13.5 11 Noroeste 25 Noroeste 0 -- -- 46
2018-03-26 13:00:00 13.4 9 Sudoeste 14 Este 0 -- -- 57
2018-03-26 12:00:00 9.8 5 Sur 10 Sudeste 0 -- -- 77
2018-03-26 11:00:00 6.6 4 Sur 10 Este 0 -- -- 90
2018-03-26 10:00:00 3 3 Norte 10 Este 0 -- -- 97
2018-03-26 09:00:00 0.6 3 Noroeste 13 Norte 0 -- -- 100
2018-03-26 08:00:00 0 11 Noroeste 13 Norte 0 -- -- 99
2018-03-26 07:00:00 0 8 Norte 12 Norte 0 -- -- 98
2018-03-26 06:00:00 0.3 7 Noroeste 12 Noroeste 0 -- -- 99
2018-03-26 05:00:00 0.6 6 Norte 10 Noroeste 0 -- -- 98
2018-03-26 04:00:00 0.6 8 Noroeste 11 Noroeste 0 -- -- 98
2018-03-26 03:00:00 1 8 Noroeste 12 Noroeste 0 -- -- 99
2018-03-26 02:00:00 2 4 Noroeste 13 Norte 0 -- -- 98
2018-03-26 01:00:00 2.3 6 Noroeste 12 Noroeste 0 -- -- 98
2018-03-26 00:00:00 2.7 8 Norte 10 Norte 0 -- -- 96
2018-03-25 23:00:00 3.8 6 Noroeste 8 Oeste 0 -- -- 95
2018-03-25 22:00:00 4.4 5 Noroeste 10 Oeste 0 -- -- 93
2018-03-25 21:00:00 5.3 9 Oeste 10 Oeste 0 -- -- 92
2018-03-25 20:00:00 7.6 5 Sudoeste 9 Sudeste 0 -- -- 85
2018-03-25 19:00:00 8.3 8 Sudeste 10 Sudeste 0 -- -- 79
2018-03-25 18:00:00 7 3 Sudeste 12 Sudeste 0 -- -- 89
2018-03-25 17:00:00 6.5 7 Sudeste 10 Sudeste 0.2 -- -- 92
2018-03-25 16:00:00 5.6 5 Sudoeste 27 Oeste 3.4 -- -- 87
2018-03-25 15:00:00 10.6 10 Sudeste 24 Este 0 -- -- 62
2018-03-25 14:00:00 13.1 15 Sudeste 28 Sudeste 0 -- -- 55
2018-03-25 13:00:00 10.2 10 Sudeste 15 Sudeste 0 -- -- 63
2018-03-25 12:00:00 10.6 9 Sudeste 15 Sudeste 0 -- -- 63
2018-03-25 11:00:00 8.1 3 Sudoeste 10 Norte 0 -- -- 71
2018-03-25 10:00:00 4.2 2 Oeste 7 Oeste 0 -- -- 96
2018-03-25 09:00:00 1.9 5 Noroeste 8 Oeste 0 -- -- 97
2018-03-25 08:00:00 1.6 5 Noroeste 8 Noroeste 0 -- -- 97
2018-03-25 07:00:00 1.2 5 Norte 9 Norte 0 -- -- 97
2018-03-25 06:00:00 1.6 5 Noroeste 13 Norte 0 -- -- 95
2018-03-25 05:00:00 1.9 9 Norte 14 Norte 0 -- -- 95
2018-03-25 03:00:00 2.8 8 Norte 15 Norte 0 -- -- 91
2018-03-25 01:00:00 3.3 6 Noroeste 14 Norte 0 -- -- 89
2018-03-25 00:00:00 3.8 8 Norte 13 Norte 0 -- -- 86
2018-03-24 23:00:00 3.9 6 Nordeste 14 Norte 0 -- -- 89
2018-03-24 22:00:00 4.3 13 Norte 16 Norte 0 -- -- 84
2018-03-24 21:00:00 5.8 8 Norte 12 Norte 0 -- -- 79
2018-03-24 20:00:00 7.9 8 Noroeste 23 Oeste 0 -- -- 62
2018-03-24 19:00:00 8.9 17 Oeste 28 Oeste 0 -- -- 62
2018-03-24 18:00:00 10.1 14 Oeste 26 Oeste 0 -- -- 57
2018-03-24 17:00:00 10.1 16 Oeste 26 Oeste 0 -- -- 55
2018-03-24 16:00:00 10.8 4 Noroeste 15 Sudeste 0 -- -- 55
2018-03-24 15:00:00 9.7 7 Oeste 24 Oeste 0 -- -- 61
2018-03-24 14:00:00 9.2 17 Oeste 30 Oeste 0 -- -- 56
2018-03-24 13:00:00 7.8 9 Noroeste 19 Noroeste 0 -- -- 64
2018-03-24 12:00:00 6.3 10 Noroeste 29 Oeste 0 -- -- 73
2018-03-24 11:00:00 5.3 17 Oeste 29 Oeste 0 -- -- 81
2018-03-24 10:00:00 4.2 20 Oeste 37 Oeste 0.2 -- -- 92
2018-03-24 09:00:00 3.5 28 Oeste 37 Noroeste 0.2 -- -- 94
2018-03-24 08:00:00 4.5 22 Noroeste 36 Noroeste 0.8 -- -- 91
2018-03-24 07:00:00 4.6 25 Oeste 30 Oeste 2 -- -- 92
2018-03-24 06:00:00 5.5 8 Oeste 18 Oeste 1 -- -- 93
2018-03-24 05:00:00 6.3 13 Oeste 17 Oeste 1.2 -- -- 96
2018-03-24 04:00:00 7.1 6 Norte 13 Oeste 1.2 -- -- 93
2018-03-24 03:00:00 7.6 4 Oeste 9 Este 1.6 -- -- 97
2018-03-24 02:00:00 7.7 4 Sudoeste 12 Norte 3 -- -- 95
2018-03-24 01:00:00 8.6 4 Sudeste 11 Sudeste 1.8 -- -- 85
2018-03-24 00:00:00 10.2 4 Sudeste 9 Sudeste 0 -- -- 69
2018-03-23 23:00:00 10.7 4 Oeste 12 Sudeste 0 -- -- 66
2018-03-23 22:00:00 11.3 3 Oeste 22 Sudoeste 0 -- -- 62
2018-03-23 21:00:00 11.9 4 Sudeste 16 Oeste 0 -- -- 58
2018-03-23 20:00:00 12.5 14 Oeste 26 Oeste 0 -- -- 51
2018-03-23 19:00:00 13.4 16 Oeste 32 Oeste 0 -- -- 47
2018-03-23 18:00:00 14.5 19 Oeste 33 Oeste 0 -- -- 50
2018-03-23 17:00:00 16.9 19 Oeste 32 Oeste 0 -- -- 43
2018-03-23 16:00:00 18.2 16 Oeste 31 Sudoeste 0 -- -- 40
2018-03-23 15:00:00 18.4 11 Sudeste 22 Sudeste 0 -- -- 33
2018-03-23 14:00:00 17.3 17 Sudeste 22 Sudeste 0 -- -- 31
2018-03-23 13:00:00 16 10 Sudeste 22 Sudeste 0 -- -- 32
2018-03-23 12:00:00 -- 13 Sudeste -- -- 0 -- -- --
2018-03-23 11:00:00 -- 4 Sudeste 8 Este 0 -- -- --
2018-03-23 10:00:00 -- 3 Este -- -- 0 -- -- --
2018-03-23 09:00:00 -- 3 Sudoeste -- -- 0 -- -- --
2018-03-23 08:00:00 -- 5 Noroeste -- -- 0 -- -- --
2018-03-23 07:00:00 -- 10 Norte -- -- 0 -- -- --
2018-03-23 06:00:00 -- 6 Noroeste -- -- 0 -- -- --
2018-03-23 05:00:00 -- 5 Oeste -- -- 0 -- -- --
2018-03-23 04:00:00 -- 3 Norte -- -- 0 -- -- --
2018-03-23 03:00:00 -- 5 Norte -- -- 0 -- -- --
2018-03-23 02:00:00 -- 9 Norte -- -- 0 -- -- --
2018-03-23 01:00:00 -- 0 Calma -- -- 0 -- -- --
2018-03-23 00:00:00 -- 3 Nordeste -- -- 0 -- -- --